Friday, September 21, 2018, 5:56 PM EDT
Back to Local

KFMH, Otis Air National Guard Base

Location: Mashpee, MA, United States Lat: 41.65
Local Time: 5:56 PM EDT (21:56 GMT) Lon: -70.517
Time Zone: US/Eastern Elev: 131 ft

Show me the last for .
Show Coded

Time T Td Feel RH Dir Speed Gust Alt SLP Vis Weather Sky Remarks
2018-09-21 17:35 66 55 - 68 200° 13 21 30.13 - 10 CLR None
2018-09-21 17:15 66 57 - 72 200° 12 20 30.13 - 10 BKN050 None
2018-09-21 16:55 66 55 - 68 200° 17 - 30.14 - 10 BKN050 None
2018-09-21 16:35 66 55 - 68 200° 17 - 30.15 - 10 CLR None
2018-09-21 16:15 68 55 - 64 210° 13 - 30.15 - 10 SCT023 None
2018-09-21 15:55 68 55 - 64 180° 14 - 30.16 - 10 BKN023 None
2018-09-21 15:35 68 55 - 64 180° 16 - 30.17 - 10 SCT025 None
2018-09-21 15:15 68 55 - 64 200° 14 - 30.17 - 10 BKN026 None
2018-09-21 14:55 68 55 - 64 170° 15 - 30.18 - 10 FEW027 None
2018-09-21 14:35 68 55 - 64 190° 14 21 30.20 - 10 FEW026 None
2018-09-21 14:15 66 54 - 63 170° 14 - 30.20 - 10 CLR None
2018-09-21 13:55 66 55 - 68 170° 14 - 30.21 - 10 FEW026 None
2018-09-21 13:35 68 54 - 60 180° 12 - 30.22 - 10 SCT027 None
2018-09-21 13:15 66 52 - 59 180° 16 - 30.23 - 10 CLR None
2018-09-21 12:55 66 54 - 63 190° 15 - 30.23 - 10 SCT027 None
2018-09-21 12:35 66 54 - 63 170° 14 - 30.24 - 10 BKN027 None
2018-09-21 12:15 66 54 - 63 140° 13 - 30.25 - 10 SCT027 None
2018-09-21 11:55 66 54 - 63 140° 12 - 30.26 - 10 SCT025 None
2018-09-21 11:35 66 54 - 63 130° 12 - 30.27 - 10 SCT025 None
2018-09-21 11:15 66 55 - 68 130° 13 - 30.27 - 10 SCT026 None
2018-09-21 10:55 66 54 - 63 170° 10 - 30.28 - 10 SCT027 None
2018-09-21 10:35 66 54 - 63 140° 10 17 30.29 - 10 CLR None
2018-09-21 10:15 66 54 - 63 140° 13 - 30.29 - 10 FEW029 FEW034 None
2018-09-21 09:55 64 52 - 63 140° 9 - 30.31 - 10 BKN029 BKN034 None
2018-09-21 09:35 64 52 - 63 120° 9 - 30.32 - 10 BKN026 None
2018-09-21 09:15 63 54 - 72 150° 5 - 30.32 - 10 SCT025 None
2018-09-21 08:55 64 54 - 67 120° 7 - 30.32 - 10 CLR None
2018-09-21 08:35 63 54 - 72 90° 5 - 30.32 - 10 CLR None
2018-09-21 08:15 61 52 - 72 100° 7 - 30.32 - 10 CLR None
2018-09-21 07:55 59 52 - 77 60° 5 - 30.32 - 10 FEW110 None
2018-09-21 07:35 59 52 - 77 80° 5 - 30.32 - 10 SCT110 None
2018-09-21 07:15 55 50 - 82 - Calm - 30.32 - 10 CLR None
2018-09-21 06:55 55 52 - 87 80° 5 - 30.31 - 10 CLR None
2018-09-21 06:35 57 50 - 76 50° 5 - 30.31 - 10 CLR None
2018-09-21 06:15 57 52 - 82 30° 5 - 30.31 - 10 CLR None
2018-09-21 05:55 55 52 - 87 50° 5 - 30.30 - 10 CLR None
2018-09-21 05:35 57 52 - 82 30° 3 - 30.30 - 10 CLR None
2018-09-21 05:15 55 52 - 87 40° 5 - 30.29 - 10 CLR None
2018-09-21 04:55 57 52 - 82 40° 5 - 30.30 - 10 CLR None
2018-09-21 04:35 57 52 - 82 60° 6 - 30.29 - 10 CLR None
2018-09-21 04:15 57 52 - 82 60° 6 - 30.29 - 10 CLR None
2018-09-21 03:55 55 52 - 87 70° 6 - 30.29 - 10 CLR None
2018-09-21 03:35 55 52 - 87 80° 6 - 30.29 - 10 CLR None
2018-09-21 03:15 57 52 - 82 70° 6 - 30.30 - 10 CLR None
2018-09-21 02:55 57 54 - 87 70° 5 - 30.30 - 10 CLR None
2018-09-21 02:35 55 52 - 87 70° 6 - 30.30 - 10 CLR None
2018-09-21 02:15 54 52 - 93 70° 5 - 30.30 - 10 CLR None
2018-09-21 01:55 55 52 - 87 80° 6 - 30.30 - 10 CLR None
2018-09-21 01:35 57 54 - 87 80° 7 - 30.30 - 10 CLR None
2018-09-21 01:15 57 54 - 87 90° 8 - 30.30 - 10 CLR None
2018-09-21 00:55 57 54 - 87 70° 5 - 30.31 - 10 CLR None
2018-09-21 00:35 55 54 - 93 80° 5 - 30.31 - 10 CLR None
2018-09-21 00:15 57 54 - 87 50° 5 - 30.31 - 10 CLR None
2018-09-20 23:55 55 54 - 93 - Calm - 30.31 - 10 CLR None
2018-09-20 23:35 55 54 - 93 110° 6 - 30.30 - 10 CLR None
2018-09-20 23:15 57 54 - 87 - Calm - 30.31 - 10 FEW048 None
2018-09-20 22:55 57 54 - 87 60° 5 - 30.31 - 10 BKN050 None
2018-09-20 22:35 59 54 - 82 - Calm - 30.31 - 10 OVC050 None
2018-09-20 22:15 59 54 - 82 50° 5 - 30.31 - 10 OVC049 None
2018-09-20 21:55 59 54 - 82 - Calm - 30.31 - 10 OVC046 None
2018-09-20 21:35 59 54 - 82 60° 7 - 30.31 - 10 OVC045 None
2018-09-20 21:15 59 54 - 82 60° 7 - 30.30 - 10 OVC043 None
2018-09-20 20:55 59 54 - 82 80° 7 - 30.29 - 10 OVC041 None
2018-09-20 20:35 59 54 - 82 70° 9 - 30.29 - 10 OVC041 None
2018-09-20 20:15 57 54 - 87 100° 9 - 30.28 - 10 SCT039 None
2018-09-20 19:55 57 54 - 87 90° 7 - 30.29 - 10 CLR None
2018-09-20 19:35 59 55 - 87 70° 7 - 30.29 - 10 CLR None
2018-09-20 19:15 59 55 - 87 70° 5 - 30.27 - 10 CLR None
2018-09-20 18:55 59 55 - 87 70° 7 - 30.27 - 10 SCT041 None
2018-09-20 18:35 61 55 - 82 50° 10 - 30.27 - 10 OVC042 None
2018-09-20 18:15 63 55 - 77 50° 13 - 30.27 - 10 OVC042 None

Support USWX by starting your Amazon purchase here.